sensor_id;sensor_type;location;lat;lon;timestamp;P1;durP1;ratioP1;P2;durP2;ratioP2
24030;SDS011;12240;51.142;22.486;2022-07-23T00:02:14;23.90;;;9.45;;
24030;SDS011;12240;51.142;22.486;2022-07-23T00:04:43;22.67;;;10.07;;
24030;SDS011;12240;51.142;22.486;2022-07-23T00:07:11;17.17;;;9.60;;
24030;SDS011;12240;51.142;22.486;2022-07-23T00:09:39;19.17;;;9.38;;
24030;SDS011;12240;51.142;22.486;2022-07-23T00:12:07;18.92;;;9.50;;
24030;SDS011;12240;51.142;22.486;2022-07-23T00:14:35;18.92;;;9.40;;
24030;SDS011;12240;51.142;22.486;2022-07-23T00:17:03;21.15;;;8.65;;
24030;SDS011;12240;51.142;22.486;2022-07-23T00:19:32;20.35;;;9.57;;
24030;SDS011;12240;51.142;22.486;2022-07-23T00:22:00;19.92;;;9.18;;
24030;SDS011;12240;51.142;22.486;2022-07-23T00:24:28;20.80;;;9.18;;
24030;SDS011;12240;51.142;22.486;2022-07-23T00:26:57;29.23;;;10.65;;
24030;SDS011;12240;51.142;22.486;2022-07-23T00:29:25;20.42;;;10.65;;
24030;SDS011;12240;51.142;22.486;2022-07-23T00:31:54;26.33;;;11.48;;
24030;SDS011;12240;51.142;22.486;2022-07-23T00:34:22;24.00;;;10.98;;
24030;SDS011;12240;51.142;22.486;2022-07-23T00:36:50;21.23;;;11.65;;
24030;SDS011;12240;51.142;22.486;2022-07-23T00:39:20;22.85;;;10.73;;
24030;SDS011;12240;51.142;22.486;2022-07-23T00:41:50;20.52;;;10.50;;
24030;SDS011;12240;51.142;22.486;2022-07-23T00:46:53;21.58;;;11.20;;
24030;SDS011;12240;51.142;22.486;2022-07-23T00:49:24;19.25;;;9.60;;
24030;SDS011;12240;51.142;22.486;2022-07-23T00:51:56;26.05;;;10.20;;
24030;SDS011;12240;51.142;22.486;2022-07-23T00:54:28;17.75;;;10.15;;
24030;SDS011;12240;51.142;22.486;2022-07-23T00:56:56;21.45;;;10.77;;
24030;SDS011;12240;51.142;22.486;2022-07-23T00:59:24;23.27;;;9.98;;
24030;SDS011;12240;51.142;22.486;2022-07-23T01:01:52;20.15;;;10.02;;
24030;SDS011;12240;51.142;22.486;2022-07-23T01:04:20;23.52;;;10.00;;
24030;SDS011;12240;51.142;22.486;2022-07-23T01:06:49;16.30;;;10.15;;
24030;SDS011;12240;51.142;22.486;2022-07-23T01:09:17;17.73;;;10.70;;
24030;SDS011;12240;51.142;22.486;2022-07-23T01:11:46;19.60;;;10.38;;
24030;SDS011;12240;51.142;22.486;2022-07-23T01:14:18;16.05;;;10.30;;
24030;SDS011;12240;51.142;22.486;2022-07-23T01:16:47;19.63;;;9.57;;
24030;SDS011;12240;51.142;22.486;2022-07-23T01:19:17;19.63;;;10.45;;
24030;SDS011;12240;51.142;22.486;2022-07-23T01:21:49;21.42;;;11.00;;
24030;SDS011;12240;51.142;22.486;2022-07-23T01:24:18;16.92;;;10.15;;
24030;SDS011;12240;51.142;22.486;2022-07-23T01:26:58;19.73;;;9.82;;
24030;SDS011;12240;51.142;22.486;2022-07-23T01:29:26;21.17;;;10.25;;
24030;SDS011;12240;51.142;22.486;2022-07-23T01:34:26;23.92;;;9.55;;
24030;SDS011;12240;51.142;22.486;2022-07-23T01:36:55;23.83;;;9.63;;
24030;SDS011;12240;51.142;22.486;2022-07-23T01:39:23;23.70;;;9.82;;
24030;SDS011;12240;51.142;22.486;2022-07-23T01:41:52;26.13;;;9.50;;
24030;SDS011;12240;51.142;22.486;2022-07-23T01:44:21;23.90;;;9.77;;
24030;SDS011;12240;51.142;22.486;2022-07-23T01:46:50;20.10;;;10.70;;
24030;SDS011;12240;51.142;22.486;2022-07-23T01:49:19;23.85;;;10.07;;
24030;SDS011;12240;51.142;22.486;2022-07-23T01:52:06;23.70;;;9.73;;
24030;SDS011;12240;51.142;22.486;2022-07-23T01:54:44;20.58;;;9.52;;
24030;SDS011;12240;51.142;22.486;2022-07-23T01:57:12;24.95;;;9.90;;
24030;SDS011;12240;51.142;22.486;2022-07-23T01:59:40;25.33;;;10.70;;
24030;SDS011;12240;51.142;22.486;2022-07-23T02:02:09;17.38;;;10.07;;
24030;SDS011;12240;51.142;22.486;2022-07-23T02:04:37;21.50;;;9.88;;
24030;SDS011;12240;51.142;22.486;2022-07-23T02:07:06;20.40;;;9.77;;
24030;SDS011;12240;51.142;22.486;2022-07-23T02:09:34;19.42;;;9.60;;
24030;SDS011;12240;51.142;22.486;2022-07-23T02:12:03;23.58;;;9.73;;
24030;SDS011;12240;51.142;22.486;2022-07-23T02:14:33;19.77;;;10.00;;
24030;SDS011;12240;51.142;22.486;2022-07-23T02:17:05;21.45;;;9.65;;
24030;SDS011;12240;51.142;22.486;2022-07-23T02:19:35;18.33;;;9.50;;
24030;SDS011;12240;51.142;22.486;2022-07-23T02:22:03;23.60;;;9.25;;
24030;SDS011;12240;51.142;22.486;2022-07-23T02:24:31;24.92;;;10.23;;
24030;SDS011;12240;51.142;22.486;2022-07-23T02:26:59;22.00;;;9.20;;
24030;SDS011;12240;51.142;22.486;2022-07-23T02:29:28;23.95;;;9.63;;
24030;SDS011;12240;51.142;22.486;2022-07-23T02:31:56;18.35;;;8.68;;
24030;SDS011;12240;51.142;22.486;2022-07-23T02:34:25;14.18;;;8.00;;
24030;SDS011;12240;51.142;22.486;2022-07-23T02:36:53;19.00;;;8.90;;
24030;SDS011;12240;51.142;22.486;2022-07-23T02:39:22;17.60;;;9.05;;
24030;SDS011;12240;51.142;22.486;2022-07-23T02:41:51;19.65;;;9.43;;
24030;SDS011;12240;51.142;22.486;2022-07-23T02:44:19;16.05;;;8.73;;
24030;SDS011;12240;51.142;22.486;2022-07-23T02:49:19;29.08;;;10.18;;
24030;SDS011;12240;51.142;22.486;2022-07-23T02:51:49;27.00;;;10.00;;
24030;SDS011;12240;51.142;22.486;2022-07-23T02:54:18;23.10;;;9.35;;
24030;SDS011;12240;51.142;22.486;2022-07-23T02:56:46;22.25;;;9.70;;
24030;SDS011;12240;51.142;22.486;2022-07-23T02:59:15;20.00;;;9.80;;
24030;SDS011;12240;51.142;22.486;2022-07-23T03:01:43;18.52;;;9.30;;
24030;SDS011;12240;51.142;22.486;2022-07-23T03:04:12;16.67;;;9.05;;
24030;SDS011;12240;51.142;22.486;2022-07-23T03:06:42;20.00;;;10.98;;
24030;SDS011;12240;51.142;22.486;2022-07-23T03:09:10;25.63;;;10.65;;
24030;SDS011;12240;51.142;22.486;2022-07-23T03:11:39;25.92;;;10.68;;
24030;SDS011;12240;51.142;22.486;2022-07-23T03:14:07;22.52;;;10.90;;
24030;SDS011;12240;51.142;22.486;2022-07-23T03:16:36;16.00;;;11.07;;
24030;SDS011;12240;51.142;22.486;2022-07-23T03:19:04;18.67;;;11.43;;
24030;SDS011;12240;51.142;22.486;2022-07-23T03:21:33;26.00;;;11.75;;
24030;SDS011;12240;51.142;22.486;2022-07-23T03:24:01;16.65;;;10.70;;
24030;SDS011;12240;51.142;22.486;2022-07-23T03:26:30;24.35;;;10.27;;
24030;SDS011;12240;51.142;22.486;2022-07-23T03:28:58;19.65;;;11.32;;
24030;SDS011;12240;51.142;22.486;2022-07-23T03:31:30;29.35;;;11.50;;
24030;SDS011;12240;51.142;22.486;2022-07-23T03:33:59;20.23;;;11.85;;
24030;SDS011;12240;51.142;22.486;2022-07-23T03:36:29;23.27;;;11.52;;
24030;SDS011;12240;51.142;22.486;2022-07-23T03:38:57;17.30;;;10.85;;
24030;SDS011;12240;51.142;22.486;2022-07-23T03:41:28;19.63;;;11.50;;
24030;SDS011;12240;51.142;22.486;2022-07-23T03:43:56;20.63;;;10.77;;
24030;SDS011;12240;51.142;22.486;2022-07-23T03:46:26;16.60;;;10.15;;
24030;SDS011;12240;51.142;22.486;2022-07-23T03:48:56;23.13;;;11.70;;
24030;SDS011;12240;51.142;22.486;2022-07-23T03:51:25;20.80;;;12.85;;
24030;SDS011;12240;51.142;22.486;2022-07-23T03:53:53;18.88;;;11.18;;
24030;SDS011;12240;51.142;22.486;2022-07-23T03:56:24;18.27;;;11.05;;
24030;SDS011;12240;51.142;22.486;2022-07-23T03:58:53;21.33;;;10.85;;
24030;SDS011;12240;51.142;22.486;2022-07-23T04:01:21;19.55;;;11.40;;
24030;SDS011;12240;51.142;22.486;2022-07-23T04:03:50;16.58;;;11.32;;
24030;SDS011;12240;51.142;22.486;2022-07-23T04:06:18;18.20;;;12.00;;
24030;SDS011;12240;51.142;22.486;2022-07-23T04:08:47;20.10;;;11.88;;
24030;SDS011;12240;51.142;22.486;2022-07-23T04:11:15;19.63;;;12.60;;
24030;SDS011;12240;51.142;22.486;2022-07-23T04:13:44;19.50;;;12.20;;
24030;SDS011;12240;51.142;22.486;2022-07-23T04:16:13;18.85;;;12.13;;
24030;SDS011;12240;51.142;22.486;2022-07-23T04:18:41;21.75;;;11.98;;
24030;SDS011;12240;51.142;22.486;2022-07-23T04:21:15;22.75;;;11.55;;
24030;SDS011;12240;51.142;22.486;2022-07-23T04:23:45;15.35;;;10.90;;
24030;SDS011;12240;51.142;22.486;2022-07-23T04:26:13;21.73;;;12.05;;
24030;SDS011;12240;51.142;22.486;2022-07-23T04:28:46;18.65;;;11.07;;
24030;SDS011;12240;51.142;22.486;2022-07-23T04:31:14;19.48;;;11.13;;
24030;SDS011;12240;51.142;22.486;2022-07-23T04:33:43;20.33;;;11.73;;
24030;SDS011;12240;51.142;22.486;2022-07-23T04:36:11;21.52;;;10.68;;
24030;SDS011;12240;51.142;22.486;2022-07-23T04:38:39;16.35;;;9.77;;
24030;SDS011;12240;51.142;22.486;2022-07-23T04:41:08;17.10;;;10.20;;
24030;SDS011;12240;51.142;22.486;2022-07-23T04:43:38;16.08;;;10.15;;
24030;SDS011;12240;51.142;22.486;2022-07-23T04:46:07;20.10;;;11.00;;
24030;SDS011;12240;51.142;22.486;2022-07-23T04:48:42;16.25;;;10.07;;
24030;SDS011;12240;51.142;22.486;2022-07-23T04:51:11;15.60;;;10.13;;
24030;SDS011;12240;51.142;22.486;2022-07-23T04:53:39;17.52;;;10.60;;
24030;SDS011;12240;51.142;22.486;2022-07-23T04:56:08;12.80;;;10.00;;
24030;SDS011;12240;51.142;22.486;2022-07-23T04:58:36;14.32;;;10.25;;
24030;SDS011;12240;51.142;22.486;2022-07-23T05:01:06;19.67;;;9.82;;
24030;SDS011;12240;51.142;22.486;2022-07-23T05:03:36;16.35;;;9.73;;
24030;SDS011;12240;51.142;22.486;2022-07-23T05:06:05;15.95;;;9.30;;
24030;SDS011;12240;51.142;22.486;2022-07-23T05:08:33;16.73;;;9.38;;
24030;SDS011;12240;51.142;22.486;2022-07-23T05:11:02;17.27;;;9.10;;
24030;SDS011;12240;51.142;22.486;2022-07-23T05:13:32;12.32;;;8.65;;
24030;SDS011;12240;51.142;22.486;2022-07-23T05:16:00;15.10;;;9.15;;
24030;SDS011;12240;51.142;22.486;2022-07-23T05:18:28;13.20;;;8.77;;
24030;SDS011;12240;51.142;22.486;2022-07-23T05:20:57;15.50;;;8.40;;
24030;SDS011;12240;51.142;22.486;2022-07-23T05:23:25;16.48;;;7.43;;
24030;SDS011;12240;51.142;22.486;2022-07-23T05:25:53;11.35;;;7.82;;
24030;SDS011;12240;51.142;22.486;2022-07-23T05:28:22;15.18;;;8.10;;
24030;SDS011;12240;51.142;22.486;2022-07-23T05:30:52;16.23;;;7.23;;
24030;SDS011;12240;51.142;22.486;2022-07-23T05:33:21;16.38;;;7.20;;
24030;SDS011;12240;51.142;22.486;2022-07-23T05:35:50;15.98;;;7.38;;
24030;SDS011;12240;51.142;22.486;2022-07-23T05:38:25;11.10;;;7.03;;
24030;SDS011;12240;51.142;22.486;2022-07-23T05:40:57;16.77;;;7.75;;
24030;SDS011;12240;51.142;22.486;2022-07-23T05:43:26;10.05;;;6.97;;
24030;SDS011;12240;51.142;22.486;2022-07-23T05:45:57;11.32;;;6.70;;
24030;SDS011;12240;51.142;22.486;2022-07-23T05:48:25;13.43;;;7.18;;
24030;SDS011;12240;51.142;22.486;2022-07-23T05:51:05;11.38;;;7.30;;
24030;SDS011;12240;51.142;22.486;2022-07-23T05:53:34;11.48;;;6.80;;
24030;SDS011;12240;51.142;22.486;2022-07-23T05:56:28;12.18;;;7.28;;
24030;SDS011;12240;51.142;22.486;2022-07-23T05:58:57;10.90;;;6.43;;
24030;SDS011;12240;51.142;22.486;2022-07-23T06:01:25;13.88;;;6.95;;
24030;SDS011;12240;51.142;22.486;2022-07-23T06:04:06;10.88;;;7.55;;
24030;SDS011;12240;51.142;22.486;2022-07-23T06:06:38;10.23;;;7.03;;
24030;SDS011;12240;51.142;22.486;2022-07-23T06:09:09;11.00;;;7.25;;
24030;SDS011;12240;51.142;22.486;2022-07-23T06:11:41;11.60;;;7.45;;
24030;SDS011;12240;51.142;22.486;2022-07-23T06:14:09;13.65;;;7.57;;
24030;SDS011;12240;51.142;22.486;2022-07-23T06:16:51;11.38;;;6.70;;
24030;SDS011;12240;51.142;22.486;2022-07-23T06:19:21;9.18;;;6.18;;
24030;SDS011;12240;51.142;22.486;2022-07-23T06:21:50;14.35;;;6.63;;
24030;SDS011;12240;51.142;22.486;2022-07-23T06:24:18;10.65;;;6.50;;
24030;SDS011;12240;51.142;22.486;2022-07-23T06:26:48;7.38;;;6.13;;
24030;SDS011;12240;51.142;22.486;2022-07-23T06:29:16;10.43;;;6.68;;
24030;SDS011;12240;51.142;22.486;2022-07-23T06:31:44;10.23;;;6.38;;
24030;SDS011;12240;51.142;22.486;2022-07-23T06:34:14;14.13;;;6.37;;
24030;SDS011;12240;51.142;22.486;2022-07-23T06:36:42;9.93;;;6.15;;
24030;SDS011;12240;51.142;22.486;2022-07-23T06:39:12;12.50;;;6.10;;
24030;SDS011;12240;51.142;22.486;2022-07-23T06:41:45;9.98;;;6.32;;
24030;SDS011;12240;51.142;22.486;2022-07-23T06:44:18;10.20;;;6.43;;
24030;SDS011;12240;51.142;22.486;2022-07-23T06:46:48;9.75;;;6.10;;
24030;SDS011;12240;51.142;22.486;2022-07-23T06:49:16;10.15;;;6.00;;
24030;SDS011;12240;51.142;22.486;2022-07-23T06:51:45;11.20;;;6.75;;
24030;SDS011;12240;51.142;22.486;2022-07-23T06:54:13;10.30;;;5.78;;
24030;SDS011;12240;51.142;22.486;2022-07-23T06:56:42;16.48;;;6.22;;
24030;SDS011;12240;51.142;22.486;2022-07-23T06:59:10;7.50;;;6.22;;
24030;SDS011;12240;51.142;22.486;2022-07-23T07:01:38;11.25;;;6.18;;
24030;SDS011;12240;51.142;22.486;2022-07-23T07:04:07;10.57;;;6.00;;
24030;SDS011;12240;51.142;22.486;2022-07-23T07:06:35;7.25;;;5.53;;
24030;SDS011;12240;51.142;22.486;2022-07-23T07:09:04;13.27;;;6.00;;
24030;SDS011;12240;51.142;22.486;2022-07-23T07:11:32;15.13;;;6.18;;
24030;SDS011;12240;51.142;22.486;2022-07-23T07:14:00;13.20;;;6.18;;
24030;SDS011;12240;51.142;22.486;2022-07-23T07:16:29;9.00;;;6.18;;
24030;SDS011;12240;51.142;22.486;2022-07-23T07:18:59;8.30;;;5.68;;
24030;SDS011;12240;51.142;22.486;2022-07-23T07:23:58;14.13;;;6.20;;
24030;SDS011;12240;51.142;22.486;2022-07-23T07:26:26;8.43;;;6.00;;
24030;SDS011;12240;51.142;22.486;2022-07-23T07:28:54;8.77;;;6.30;;
24030;SDS011;12240;51.142;22.486;2022-07-23T07:31:23;9.77;;;5.50;;
24030;SDS011;12240;51.142;22.486;2022-07-23T07:33:51;8.60;;;5.90;;
24030;SDS011;12240;51.142;22.486;2022-07-23T07:36:20;12.65;;;6.05;;
24030;SDS011;12240;51.142;22.486;2022-07-23T07:38:48;10.27;;;5.88;;
24030;SDS011;12240;51.142;22.486;2022-07-23T07:41:18;5.85;;;5.25;;
24030;SDS011;12240;51.142;22.486;2022-07-23T07:43:50;8.75;;;5.60;;
24030;SDS011;12240;51.142;22.486;2022-07-23T07:46:18;9.60;;;5.50;;
24030;SDS011;12240;51.142;22.486;2022-07-23T07:48:47;10.85;;;5.72;;
24030;SDS011;12240;51.142;22.486;2022-07-23T07:51:22;8.85;;;5.20;;
24030;SDS011;12240;51.142;22.486;2022-07-23T07:53:51;9.57;;;4.90;;
24030;SDS011;12240;51.142;22.486;2022-07-23T07:58:50;7.65;;;5.55;;
24030;SDS011;12240;51.142;22.486;2022-07-23T08:01:19;6.53;;;4.75;;
24030;SDS011;12240;51.142;22.486;2022-07-23T08:03:48;25.83;;;5.95;;
24030;SDS011;12240;51.142;22.486;2022-07-23T08:06:16;9.30;;;4.70;;
24030;SDS011;12240;51.142;22.486;2022-07-23T08:08:47;8.52;;;5.40;;
24030;SDS011;12240;51.142;22.486;2022-07-23T08:11:16;9.35;;;4.90;;
24030;SDS011;12240;51.142;22.486;2022-07-23T08:13:44;10.70;;;5.38;;
24030;SDS011;12240;51.142;22.486;2022-07-23T08:16:12;11.15;;;4.85;;
24030;SDS011;12240;51.142;22.486;2022-07-23T08:18:40;10.68;;;5.10;;
24030;SDS011;12240;51.142;22.486;2022-07-23T08:21:09;9.30;;;5.03;;
24030;SDS011;12240;51.142;22.486;2022-07-23T08:23:38;7.10;;;5.25;;
24030;SDS011;12240;51.142;22.486;2022-07-23T08:26:07;8.32;;;5.20;;
24030;SDS011;12240;51.142;22.486;2022-07-23T08:28:36;7.15;;;5.03;;
24030;SDS011;12240;51.142;22.486;2022-07-23T08:31:04;7.75;;;5.18;;
24030;SDS011;12240;51.142;22.486;2022-07-23T08:33:33;7.60;;;5.32;;
24030;SDS011;12240;51.142;22.486;2022-07-23T08:36:02;6.60;;;5.35;;
24030;SDS011;12240;51.142;22.486;2022-07-23T08:38:34;8.30;;;5.30;;
24030;SDS011;12240;51.142;22.486;2022-07-23T08:41:02;6.60;;;5.00;;
24030;SDS011;12240;51.142;22.486;2022-07-23T08:43:34;7.78;;;4.97;;
24030;SDS011;12240;51.142;22.486;2022-07-23T08:46:03;6.65;;;5.00;;
24030;SDS011;12240;51.142;22.486;2022-07-23T08:48:33;6.05;;;4.93;;
24030;SDS011;12240;51.142;22.486;2022-07-23T08:51:06;8.60;;;5.00;;
24030;SDS011;12240;51.142;22.486;2022-07-23T08:53:35;6.68;;;5.20;;
24030;SDS011;12240;51.142;22.486;2022-07-23T08:58:34;6.57;;;4.85;;
24030;SDS011;12240;51.142;22.486;2022-07-23T09:01:02;5.63;;;4.70;;
24030;SDS011;12240;51.142;22.486;2022-07-23T09:03:35;7.40;;;4.97;;
24030;SDS011;12240;51.142;22.486;2022-07-23T09:06:05;6.13;;;4.68;;
24030;SDS011;12240;51.142;22.486;2022-07-23T09:08:35;9.52;;;5.13;;
24030;SDS011;12240;51.142;22.486;2022-07-23T09:11:18;9.02;;;5.32;;
24030;SDS011;12240;51.142;22.486;2022-07-23T09:13:50;6.35;;;4.90;;
24030;SDS011;12240;51.142;22.486;2022-07-23T09:16:24;8.48;;;4.80;;
24030;SDS011;12240;51.142;22.486;2022-07-23T09:18:58;6.47;;;5.00;;
24030;SDS011;12240;51.142;22.486;2022-07-23T09:21:38;7.07;;;5.32;;
24030;SDS011;12240;51.142;22.486;2022-07-23T09:26:42;6.70;;;4.53;;
24030;SDS011;12240;51.142;22.486;2022-07-23T09:34:23;6.85;;;5.38;;
24030;SDS011;12240;51.142;22.486;2022-07-23T09:37:09;12.80;;;5.13;;
24030;SDS011;12240;51.142;22.486;2022-07-23T09:39:42;9.35;;;5.55;;
24030;SDS011;12240;51.142;22.486;2022-07-23T09:42:19;7.72;;;4.70;;
24030;SDS011;12240;51.142;22.486;2022-07-23T09:44:53;7.57;;;5.22;;
24030;SDS011;12240;51.142;22.486;2022-07-23T09:47:32;5.72;;;4.82;;
24030;SDS011;12240;51.142;22.486;2022-07-23T09:50:05;6.80;;;4.68;;
24030;SDS011;12240;51.142;22.486;2022-07-23T09:52:47;11.00;;;5.18;;
24030;SDS011;12240;51.142;22.486;2022-07-23T09:55:17;5.53;;;4.88;;
24030;SDS011;12240;51.142;22.486;2022-07-23T09:57:46;5.97;;;4.95;;
24030;SDS011;12240;51.142;22.486;2022-07-23T10:00:20;6.35;;;4.90;;
24030;SDS011;12240;51.142;22.486;2022-07-23T10:02:50;5.55;;;4.93;;
24030;SDS011;12240;51.142;22.486;2022-07-23T10:05:29;6.55;;;5.28;;
24030;SDS011;12240;51.142;22.486;2022-07-23T10:08:02;6.63;;;5.47;;
24030;SDS011;12240;51.142;22.486;2022-07-23T10:10:53;9.00;;;5.13;;
24030;SDS011;12240;51.142;22.486;2022-07-23T10:13:42;6.10;;;5.03;;
24030;SDS011;12240;51.142;22.486;2022-07-23T10:16:30;9.50;;;5.15;;
24030;SDS011;12240;51.142;22.486;2022-07-23T10:21:40;7.38;;;5.13;;
24030;SDS011;12240;51.142;22.486;2022-07-23T10:35:03;6.95;;;5.38;;
24030;SDS011;12240;51.142;22.486;2022-07-23T10:37:39;6.97;;;5.60;;
24030;SDS011;12240;51.142;22.486;2022-07-23T10:40:13;8.27;;;5.25;;
24030;SDS011;12240;51.142;22.486;2022-07-23T10:42:51;5.93;;;5.10;;
24030;SDS011;12240;51.142;22.486;2022-07-23T10:45:32;11.45;;;5.60;;
24030;SDS011;12240;51.142;22.486;2022-07-23T10:48:20;7.70;;;5.30;;
24030;SDS011;12240;51.142;22.486;2022-07-23T10:51:12;7.03;;;5.10;;
24030;SDS011;12240;51.142;22.486;2022-07-23T10:59:23;8.63;;;4.82;;
24030;SDS011;12240;51.142;22.486;2022-07-23T11:01:52;7.07;;;5.40;;
24030;SDS011;12240;51.142;22.486;2022-07-23T11:04:20;7.72;;;5.30;;
24030;SDS011;12240;51.142;22.486;2022-07-23T11:07:19;6.90;;;5.10;;
24030;SDS011;12240;51.142;22.486;2022-07-23T11:09:48;9.52;;;5.10;;
24030;SDS011;12240;51.142;22.486;2022-07-23T11:15:04;7.43;;;5.47;;
24030;SDS011;12240;51.142;22.486;2022-07-23T11:27:50;7.45;;;5.63;;
24030;SDS011;12240;51.142;22.486;2022-07-23T11:35:40;6.68;;;5.00;;
24030;SDS011;12240;51.142;22.486;2022-07-23T11:38:14;8.85;;;5.20;;
24030;SDS011;12240;51.142;22.486;2022-07-23T11:40:46;6.13;;;4.93;;
24030;SDS011;12240;51.142;22.486;2022-07-23T11:43:26;7.03;;;4.80;;
24030;SDS011;12240;51.142;22.486;2022-07-23T11:45:58;6.30;;;4.95;;
24030;SDS011;12240;51.142;22.486;2022-07-23T11:48:28;10.27;;;5.32;;
24030;SDS011;12240;51.142;22.486;2022-07-23T11:51:02;5.82;;;5.00;;
24030;SDS011;12240;51.142;22.486;2022-07-23T11:53:34;7.20;;;4.88;;
24030;SDS011;12240;51.142;22.486;2022-07-23T11:56:07;7.70;;;5.03;;
24030;SDS011;12240;51.142;22.486;2022-07-23T11:58:38;8.23;;;5.10;;
24030;SDS011;12240;51.142;22.486;2022-07-23T12:01:21;8.60;;;5.47;;
24030;SDS011;12240;51.142;22.486;2022-07-23T12:03:50;9.23;;;5.20;;
24030;SDS011;12240;51.142;22.486;2022-07-23T12:06:19;9.82;;;5.80;;
24030;SDS011;12240;51.142;22.486;2022-07-23T12:08:47;7.47;;;5.75;;
24030;SDS011;12240;51.142;22.486;2022-07-23T12:11:16;9.52;;;6.13;;
24030;SDS011;12240;51.142;22.486;2022-07-23T12:13:44;6.78;;;6.07;;
24030;SDS011;12240;51.142;22.486;2022-07-23T12:16:25;7.97;;;6.00;;
24030;SDS011;12240;51.142;22.486;2022-07-23T12:18:53;6.53;;;5.75;;
24030;SDS011;12240;51.142;22.486;2022-07-23T12:21:21;10.10;;;5.30;;
24030;SDS011;12240;51.142;22.486;2022-07-23T12:23:50;8.60;;;5.50;;
24030;SDS011;12240;51.142;22.486;2022-07-23T12:26:18;7.93;;;5.90;;
24030;SDS011;12240;51.142;22.486;2022-07-23T12:28:51;8.98;;;5.50;;
24030;SDS011;12240;51.142;22.486;2022-07-23T12:31:25;11.90;;;5.60;;
24030;SDS011;12240;51.142;22.486;2022-07-23T12:33:57;5.88;;;5.25;;
24030;SDS011;12240;51.142;22.486;2022-07-23T12:36:38;8.32;;;5.30;;
24030;SDS011;12240;51.142;22.486;2022-07-23T12:39:07;10.60;;;5.38;;
24030;SDS011;12240;51.142;22.486;2022-07-23T12:41:52;7.95;;;5.85;;
24030;SDS011;12240;51.142;22.486;2022-07-23T12:44:21;8.25;;;5.70;;
24030;SDS011;12240;51.142;22.486;2022-07-23T12:46:52;7.70;;;5.25;;
24030;SDS011;12240;51.142;22.486;2022-07-23T12:49:27;6.18;;;5.55;;
24030;SDS011;12240;51.142;22.486;2022-07-23T12:52:16;7.97;;;5.50;;
24030;SDS011;12240;51.142;22.486;2022-07-23T12:54:46;8.03;;;4.93;;
24030;SDS011;12240;51.142;22.486;2022-07-23T12:57:15;7.35;;;5.45;;
24030;SDS011;12240;51.142;22.486;2022-07-23T12:59:45;5.93;;;5.32;;
24030;SDS011;12240;51.142;22.486;2022-07-23T13:02:13;7.43;;;5.22;;
24030;SDS011;12240;51.142;22.486;2022-07-23T13:04:42;8.43;;;5.47;;
24030;SDS011;12240;51.142;22.486;2022-07-23T13:07:10;9.57;;;5.97;;
24030;SDS011;12240;51.142;22.486;2022-07-23T13:09:42;7.97;;;5.30;;
24030;SDS011;12240;51.142;22.486;2022-07-23T13:12:10;8.52;;;5.15;;
24030;SDS011;12240;51.142;22.486;2022-07-23T13:14:39;9.85;;;5.32;;
24030;SDS011;12240;51.142;22.486;2022-07-23T13:17:08;8.02;;;5.47;;
24030;SDS011;12240;51.142;22.486;2022-07-23T13:19:36;9.60;;;4.93;;
24030;SDS011;12240;51.142;22.486;2022-07-23T13:22:04;9.68;;;4.90;;
24030;SDS011;12240;51.142;22.486;2022-07-23T13:24:36;7.72;;;5.13;;
24030;SDS011;12240;51.142;22.486;2022-07-23T13:27:05;6.10;;;5.40;;
24030;SDS011;12240;51.142;22.486;2022-07-23T13:29:37;7.85;;;4.95;;
24030;SDS011;12240;51.142;22.486;2022-07-23T13:32:06;8.02;;;5.20;;
24030;SDS011;12240;51.142;22.486;2022-07-23T13:34:37;5.88;;;4.38;;
24030;SDS011;12240;51.142;22.486;2022-07-23T13:37:07;7.53;;;4.33;;
24030;SDS011;12240;51.142;22.486;2022-07-23T13:39:36;7.70;;;4.95;;
24030;SDS011;12240;51.142;22.486;2022-07-23T13:42:05;10.15;;;5.03;;
24030;SDS011;12240;51.142;22.486;2022-07-23T13:44:34;8.70;;;4.93;;
24030;SDS011;12240;51.142;22.486;2022-07-23T13:47:03;7.07;;;4.70;;
24030;SDS011;12240;51.142;22.486;2022-07-23T13:49:32;5.75;;;4.90;;
24030;SDS011;12240;51.142;22.486;2022-07-23T13:52:01;5.88;;;4.78;;
24030;SDS011;12240;51.142;22.486;2022-07-23T13:54:34;5.75;;;4.78;;
24030;SDS011;12240;51.142;22.486;2022-07-23T13:57:03;7.15;;;4.82;;
24030;SDS011;12240;51.142;22.486;2022-07-23T13:59:31;6.07;;;5.07;;
24030;SDS011;12240;51.142;22.486;2022-07-23T14:02:00;8.15;;;4.95;;
24030;SDS011;12240;51.142;22.486;2022-07-23T14:04:51;11.27;;;5.20;;
24030;SDS011;12240;51.142;22.486;2022-07-23T14:07:20;10.15;;;5.30;;
24030;SDS011;12240;51.142;22.486;2022-07-23T14:09:48;7.57;;;4.97;;
24030;SDS011;12240;51.142;22.486;2022-07-23T14:12:18;6.03;;;4.82;;
24030;SDS011;12240;51.142;22.486;2022-07-23T14:14:49;6.93;;;4.68;;
24030;SDS011;12240;51.142;22.486;2022-07-23T14:17:24;6.90;;;4.55;;
24030;SDS011;12240;51.142;22.486;2022-07-23T14:19:53;6.93;;;4.80;;
24030;SDS011;12240;51.142;22.486;2022-07-23T14:22:22;7.82;;;4.90;;
24030;SDS011;12240;51.142;22.486;2022-07-23T14:24:52;6.18;;;4.90;;
24030;SDS011;12240;51.142;22.486;2022-07-23T14:27:24;9.05;;;5.13;;
24030;SDS011;12240;51.142;22.486;2022-07-23T14:29:54;6.13;;;4.82;;
24030;SDS011;12240;51.142;22.486;2022-07-23T14:32:23;6.60;;;5.15;;
24030;SDS011;12240;51.142;22.486;2022-07-23T14:34:52;6.85;;;5.18;;
24030;SDS011;12240;51.142;22.486;2022-07-23T14:37:20;9.52;;;5.60;;
24030;SDS011;12240;51.142;22.486;2022-07-23T14:39:51;6.70;;;5.30;;
24030;SDS011;12240;51.142;22.486;2022-07-23T14:42:19;9.23;;;5.90;;
24030;SDS011;12240;51.142;22.486;2022-07-23T14:44:48;6.82;;;5.00;;
24030;SDS011;12240;51.142;22.486;2022-07-23T14:47:17;10.20;;;5.10;;
24030;SDS011;12240;51.142;22.486;2022-07-23T14:49:49;9.13;;;5.32;;
24030;SDS011;12240;51.142;22.486;2022-07-23T14:52:18;9.90;;;4.75;;
24030;SDS011;12240;51.142;22.486;2022-07-23T14:54:47;8.00;;;4.93;;
24030;SDS011;12240;51.142;22.486;2022-07-23T14:57:16;6.40;;;4.93;;
24030;SDS011;12240;51.142;22.486;2022-07-23T14:59:51;6.78;;;4.95;;
24030;SDS011;12240;51.142;22.486;2022-07-23T15:02:21;9.20;;;5.20;;
24030;SDS011;12240;51.142;22.486;2022-07-23T15:04:49;8.52;;;5.13;;
24030;SDS011;12240;51.142;22.486;2022-07-23T15:07:17;12.20;;;5.50;;
24030;SDS011;12240;51.142;22.486;2022-07-23T15:09:47;7.63;;;5.13;;
24030;SDS011;12240;51.142;22.486;2022-07-23T15:12:15;5.55;;;4.95;;
24030;SDS011;12240;51.142;22.486;2022-07-23T15:14:43;7.95;;;5.80;;
24030;SDS011;12240;51.142;22.486;2022-07-23T15:17:11;6.72;;;4.95;;
24030;SDS011;12240;51.142;22.486;2022-07-23T15:19:43;6.40;;;5.05;;
24030;SDS011;12240;51.142;22.486;2022-07-23T15:22:12;7.53;;;5.80;;
24030;SDS011;12240;51.142;22.486;2022-07-23T15:24:40;9.10;;;5.65;;
24030;SDS011;12240;51.142;22.486;2022-07-23T15:27:08;7.50;;;5.68;;
24030;SDS011;12240;51.142;22.486;2022-07-23T15:29:36;8.77;;;5.70;;
24030;SDS011;12240;51.142;22.486;2022-07-23T15:34:37;6.97;;;5.55;;
24030;SDS011;12240;51.142;22.486;2022-07-23T15:37:06;9.63;;;5.95;;
24030;SDS011;12240;51.142;22.486;2022-07-23T15:39:40;10.07;;;5.22;;
24030;SDS011;12240;51.142;22.486;2022-07-23T15:42:08;7.13;;;5.75;;
24030;SDS011;12240;51.142;22.486;2022-07-23T15:44:41;13.27;;;5.82;;
24030;SDS011;12240;51.142;22.486;2022-07-23T15:47:13;12.20;;;5.65;;
24030;SDS011;12240;51.142;22.486;2022-07-23T15:49:44;13.10;;;5.90;;